Amelia Island, Florida
Current Conditions -  °F | °C
As of 11:15 AM on Friday 21 Nov 2014 (Local Time) from KFHB Reporting Station
Clear Clear  
Wind Chill: 68°   Ceiling: Unl
Heat Index: 68°   Visibility: 10mi
Dew Point: 50°   Wind: 7mph
Humidity: 52%   Direction: 60°ENE
Pressure: 30.36"   Gusts: 16mph
Location:  30.6056°N, 81.5268°W
Report Text: KFHB 211615Z AUTO 06006G14KT 10SM CLR 20/10 A3036 RMK AO1
Loading
Personal Weather Stations






























Interactive Weather Map New forecast layout! Learn more

10-Day Weather Forecast

Advertisements
Track Severe Weather on mobile